createdAt,value
2023-02-24T00:01:25.893Z,66.88
2023-02-24T00:04:13.669Z,54.67
2023-02-24T00:06:59.984Z,53.38
2023-02-24T00:09:45.772Z,52.45
2023-02-24T00:12:31.478Z,51.30
2023-02-24T00:15:17.423Z,57.40
2023-02-24T00:18:07.175Z,62.50
2023-02-24T00:20:56.638Z,68.68
2023-02-24T00:23:47.108Z,80.47
2023-02-24T00:26:33.074Z,74.70
2023-02-24T00:29:19.411Z,73.30
2023-02-24T00:32:08.068Z,67.53
2023-02-24T00:34:55.289Z,66.63
2023-02-24T00:37:43.699Z,63.42
2023-02-24T00:40:30.490Z,64.80
2023-02-24T00:43:18.726Z,72.47
2023-02-24T00:46:11.406Z,75.38
2023-02-24T00:48:58.485Z,88.93
2023-02-24T00:51:49.009Z,80.07
2023-02-24T00:54:36.631Z,87.85
2023-02-24T00:57:22.632Z,83.65
2023-02-24T01:00:16.753Z,96.10
2023-02-24T01:03:03.690Z,86.97
2023-02-24T01:05:50.367Z,78.38
2023-02-24T01:08:38.680Z,69.15
2023-02-24T01:11:45.692Z,77.70
2023-02-24T01:14:33.607Z,73.85
2023-02-24T01:17:20.336Z,60.75
2023-02-24T01:20:18.478Z,61.25
2023-02-24T01:23:04.622Z,58.80
2023-02-24T01:25:50.769Z,54.55
2023-02-24T01:28:37.726Z,55.50
2023-02-24T01:31:25.314Z,54.03
2023-02-24T01:34:13.089Z,66.00
2023-02-24T01:36:58.990Z,61.83
2023-02-24T01:39:46.219Z,60.58
2023-02-24T01:42:32.952Z,58.17
2023-02-24T01:45:25.233Z,54.75
2023-02-24T01:48:12.675Z,56.95
2023-02-24T01:50:59.335Z,57.55
2023-02-24T01:53:45.827Z,64.57
2023-02-24T01:56:32.678Z,56.67
2023-02-24T01:59:20.395Z,58.65
2023-02-24T02:02:08.684Z,60.95
2023-02-24T02:04:58.898Z,60.42
2023-02-24T02:07:45.302Z,61.05
2023-02-24T02:10:32.156Z,60.15
2023-02-24T02:13:21.585Z,53.75
2023-02-24T02:16:17.944Z,56.38
2023-02-24T02:19:22.857Z,115.30
2023-02-24T02:22:19.177Z,103.68
2023-02-24T02:25:26.660Z,78.78
2023-02-24T02:28:31.833Z,72.88
2023-02-24T02:31:29.309Z,54.35
2023-02-24T02:34:22.664Z,56.67
2023-02-24T02:37:34.796Z,55.78
2023-02-24T02:40:49.856Z,59.57
2023-02-24T02:43:46.575Z,61.13
2023-02-24T02:46:41.276Z,56.67
2023-02-24T02:49:32.412Z,56.55
2023-02-24T02:52:35.873Z,58.70
2023-02-24T02:55:26.510Z,60.95
2023-02-24T02:58:15.822Z,58.22
2023-02-24T03:01:07.349Z,56.20
2023-02-24T03:03:56.007Z,54.83
2023-02-24T03:06:45.996Z,61.08
2023-02-24T03:09:39.307Z,55.40
2023-02-24T03:12:29.613Z,56.55
2023-02-24T03:15:17.126Z,54.20
2023-02-24T03:18:12.184Z,53.47
2023-02-24T03:21:20.321Z,61.30
2023-02-24T03:24:07.445Z,57.78
2023-02-24T03:27:03.223Z,58.78
2023-02-24T03:30:13.083Z,67.35
2023-02-24T03:33:05.664Z,66.05
2023-02-24T03:35:52.558Z,56.17
2023-02-24T03:38:38.774Z,59.05
2023-02-24T03:41:30.941Z,59.55
2023-02-24T03:44:17.079Z,63.13
2023-02-24T03:47:03.646Z,57.90
2023-02-24T03:49:50.524Z,57.17
2023-02-24T03:53:01.800Z,55.05
2023-02-24T03:56:03.800Z,61.00
2023-02-24T03:59:18.723Z,56.85
2023-02-24T04:02:09.263Z,61.22
2023-02-24T04:05:20.785Z,61.90
2023-02-24T04:08:21.475Z,60.03
2023-02-24T04:11:23.081Z,59.83
2023-02-24T04:14:32.094Z,61.45
2023-02-24T04:17:23.484Z,60.20
2023-02-24T04:23:10.760Z,59.40
2023-02-24T04:25:57.066Z,64.85
2023-02-24T04:28:44.820Z,64.80
2023-02-24T04:31:32.210Z,66.25
2023-02-24T04:34:20.336Z,62.40
2023-02-24T04:37:07.151Z,80.93
2023-02-24T04:39:55.155Z,67.72
2023-02-24T04:42:49.213Z,72.22
2023-02-24T04:45:35.435Z,71.65
2023-02-24T04:48:21.117Z,64.47
2023-02-24T04:51:06.992Z,78.55
2023-02-24T04:53:55.420Z,97.05
2023-02-24T04:56:41.497Z,114.68
2023-02-24T04:59:28.112Z,119.38
2023-02-24T05:02:18.855Z,123.05
2023-02-24T05:05:08.547Z,118.53
2023-02-24T05:08:03.140Z,110.80
2023-02-24T05:10:49.475Z,117.78
2023-02-24T05:13:37.686Z,121.47
2023-02-24T05:16:23.492Z,116.18
2023-02-24T05:19:30.053Z,110.03
2023-02-24T05:22:17.566Z,108.60
2023-02-24T05:25:04.981Z,101.05
2023-02-24T05:27:51.362Z,114.18
2023-02-24T05:30:38.356Z,109.03
2023-02-24T05:33:24.298Z,110.35
2023-02-24T05:36:15.234Z,108.22
2023-02-24T05:39:07.861Z,95.80
2023-02-24T05:41:57.227Z,94.47
2023-02-24T05:44:43.697Z,98.57
2023-02-24T05:47:30.151Z,86.35
2023-02-24T05:50:17.501Z,92.72
2023-02-24T05:53:03.791Z,88.50
2023-02-24T05:55:49.645Z,85.63
2023-02-24T05:58:39.273Z,94.82
2023-02-24T06:01:25.250Z,105.50
2023-02-24T06:04:20.843Z,103.40
2023-02-24T06:07:14.621Z,94.00
2023-02-24T06:10:01.960Z,84.30
2023-02-24T06:12:47.833Z,84.45
2023-02-24T06:15:34.061Z,84.85
2023-02-24T06:18:21.526Z,97.97
2023-02-24T06:21:07.972Z,97.20
2023-02-24T06:23:54.142Z,101.82
2023-02-24T06:26:43.469Z,161.05
2023-02-24T06:29:30.560Z,149.98
2023-02-24T06:32:20.976Z,147.68
2023-02-24T06:35:07.211Z,180.38
2023-02-24T06:37:55.945Z,149.88
2023-02-24T06:40:42.770Z,131.45
2023-02-24T06:43:28.854Z,106.97
2023-02-24T06:46:16.497Z,106.95
2023-02-24T06:49:03.049Z,99.45
2023-02-24T06:51:50.468Z,100.80
2023-02-24T06:54:36.348Z,98.93
2023-02-24T06:57:23.645Z,117.28
2023-02-24T07:00:20.768Z,113.68
2023-02-24T07:03:15.042Z,128.38
2023-02-24T07:06:12.355Z,102.00
2023-02-24T07:08:58.889Z,101.13
2023-02-24T07:11:48.312Z,113.28
2023-02-24T07:14:37.022Z,105.93
2023-02-24T07:17:23.516Z,109.43
2023-02-24T07:20:13.202Z,89.63
2023-02-24T07:22:59.245Z,103.95
2023-02-24T07:25:46.464Z,101.38
2023-02-24T07:28:32.385Z,91.70
2023-02-24T07:31:21.114Z,99.00
2023-02-24T07:34:07.276Z,106.55
2023-02-24T07:36:53.340Z,91.72
2023-02-24T07:39:40.763Z,94.15
2023-02-24T07:42:30.623Z,98.85
2023-02-24T07:45:16.995Z,101.10
2023-02-24T07:48:02.971Z,118.30
2023-02-24T07:50:50.915Z,112.30
2023-02-24T07:53:37.010Z,116.68
2023-02-24T07:56:32.989Z,116.13
2023-02-24T07:59:19.702Z,108.10
2023-02-24T08:02:07.831Z,103.82
2023-02-24T08:04:54.239Z,94.30
2023-02-24T08:07:40.446Z,101.22
2023-02-24T08:10:26.714Z,98.90
2023-02-24T08:13:13.063Z,79.72
2023-02-24T08:15:59.024Z,75.40
2023-02-24T08:18:50.796Z,93.90
2023-02-24T08:21:41.312Z,92.45
2023-02-24T08:24:30.240Z,83.43
2023-02-24T08:27:21.110Z,82.15
2023-02-24T08:30:08.113Z,89.53
2023-02-24T08:32:57.219Z,84.18
2023-02-24T08:35:45.012Z,83.35
2023-02-24T08:38:42.079Z,101.75
2023-02-24T08:41:44.964Z,85.28
2023-02-24T08:47:21.258Z,78.70
2023-02-24T08:50:07.449Z,77.38
2023-02-24T08:52:53.501Z,73.72
2023-02-24T08:55:40.083Z,75.55
2023-02-24T08:58:29.102Z,67.40
2023-02-24T09:01:20.160Z,56.92
2023-02-24T09:04:07.474Z,47.47
2023-02-24T09:07:10.644Z,61.75
2023-02-24T09:09:57.186Z,45.22
2023-02-24T09:12:42.975Z,38.58
2023-02-24T09:15:41.429Z,37.55
2023-02-24T09:18:30.382Z,35.38
2023-02-24T09:21:36.445Z,36.53
2023-02-24T09:24:28.371Z,31.27
2023-02-24T09:27:17.319Z,46.03
2023-02-24T09:30:08.233Z,30.60
2023-02-24T09:33:01.443Z,53.03
2023-02-24T09:35:53.673Z,27.40
2023-02-24T09:38:59.645Z,33.67
2023-02-24T09:42:08.072Z,26.50
2023-02-24T09:45:01.609Z,26.67
2023-02-24T09:47:57.297Z,26.42
2023-02-24T09:51:04.556Z,31.10
2023-02-24T09:53:53.276Z,20.73
2023-02-24T09:56:42.744Z,19.80
2023-02-24T10:00:23.333Z,21.60
2023-02-24T10:03:20.957Z,15.50
2023-02-24T10:06:26.921Z,18.30
2023-02-24T10:09:42.299Z,21.83
2023-02-24T10:12:40.285Z,21.15
2023-02-24T10:15:58.982Z,16.17
2023-02-24T10:19:26.022Z,18.27
2023-02-24T10:22:27.561Z,21.23
2023-02-24T10:25:54.088Z,14.18
2023-02-24T10:28:52.129Z,28.88
2023-02-24T10:31:48.045Z,21.42
2023-02-24T10:34:34.420Z,28.10
2023-02-24T10:37:28.752Z,30.13
2023-02-24T10:40:26.472Z,20.13
2023-02-24T10:43:30.140Z,24.27
2023-02-24T10:46:41.053Z,41.88
2023-02-24T10:49:27.535Z,32.83
2023-02-24T10:52:33.492Z,23.75
2023-02-24T10:55:28.540Z,14.60
2023-02-24T10:58:28.271Z,16.38
2023-02-24T11:01:21.086Z,27.25
2023-02-24T11:07:25.030Z,27.92
2023-02-24T11:10:26.059Z,20.80
2023-02-24T11:13:35.163Z,19.98
2023-02-24T11:16:39.858Z,22.25
2023-02-24T11:19:29.512Z,23.00
2023-02-24T11:22:24.432Z,23.33
2023-02-24T11:25:27.326Z,26.33
2023-02-24T11:28:35.948Z,28.58
2023-02-24T11:31:25.202Z,25.75
2023-02-24T11:34:59.617Z,22.42
2023-02-24T11:37:48.784Z,29.67
2023-02-24T11:40:40.418Z,14.90
2023-02-24T11:43:28.328Z,28.10
2023-02-24T11:46:22.958Z,35.63
2023-02-24T11:49:27.504Z,26.50
2023-02-24T11:52:21.253Z,15.77
2023-02-24T11:55:17.514Z,31.33
2023-02-24T11:58:07.819Z,22.70
2023-02-24T12:01:06.767Z,24.52
2023-02-24T12:04:05.207Z,17.98
2023-02-24T12:07:14.057Z,26.80
2023-02-24T12:10:16.616Z,27.13
2023-02-24T12:13:15.873Z,28.17
2023-02-24T12:16:07.853Z,24.77
2023-02-24T12:19:06.467Z,34.15
2023-02-24T12:21:59.159Z,26.17
2023-02-24T12:24:50.050Z,34.63
2023-02-24T12:27:42.487Z,25.27
2023-02-24T12:33:49.861Z,32.65
2023-02-24T12:36:39.028Z,30.67
2023-02-24T12:39:42.167Z,25.80
2023-02-24T12:43:19.047Z,26.83
2023-02-24T12:46:27.264Z,20.52
2023-02-24T12:49:40.418Z,34.85
2023-02-24T12:52:38.238Z,28.65
2023-02-24T12:55:31.617Z,23.45
2023-02-24T12:58:25.846Z,18.85
2023-02-24T13:01:24.852Z,16.58
2023-02-24T13:04:14.327Z,26.02
2023-02-24T13:07:09.962Z,23.40
2023-02-24T13:09:55.699Z,19.77
2023-02-24T13:13:00.433Z,18.52
2023-02-24T13:15:55.146Z,28.63
2023-02-24T13:18:41.046Z,23.35
2023-02-24T13:21:27.103Z,22.50
2023-02-24T13:24:21.749Z,26.75
2023-02-24T13:27:13.533Z,26.67
2023-02-24T13:30:01.783Z,25.55
2023-02-24T13:32:59.719Z,23.08
2023-02-24T13:35:47.657Z,29.88
2023-02-24T13:38:33.290Z,26.10
2023-02-24T13:41:22.443Z,20.10
2023-02-24T13:44:26.280Z,21.48
2023-02-24T13:47:35.618Z,25.60
2023-02-24T13:50:41.257Z,22.38
2023-02-24T13:54:04.791Z,29.33
2023-02-24T13:56:57.588Z,18.90
2023-02-24T14:00:13.010Z,26.13
2023-02-24T14:02:59.420Z,29.83
2023-02-24T14:05:45.641Z,33.47
2023-02-24T14:08:47.858Z,30.33
2023-02-24T14:11:36.275Z,31.60
2023-02-24T14:14:22.389Z,21.52
2023-02-24T14:17:30.140Z,23.75
2023-02-24T14:20:21.136Z,21.20
2023-02-24T14:23:39.734Z,27.38
2023-02-24T14:26:26.437Z,19.95
2023-02-24T14:29:16.842Z,24.38
2023-02-24T14:32:03.290Z,31.70
2023-02-24T14:34:49.702Z,23.30
2023-02-24T14:37:35.999Z,26.20
2023-02-24T14:40:25.424Z,28.83
2023-02-24T14:43:15.123Z,24.67
2023-02-24T14:46:05.924Z,29.13
2023-02-24T14:48:56.434Z,27.23
2023-02-24T14:51:42.390Z,17.90
2023-02-24T14:54:54.929Z,24.95
2023-02-24T14:57:45.655Z,29.50
2023-02-24T15:00:35.329Z,26.60
2023-02-24T15:03:24.494Z,25.92
2023-02-24T15:06:25.331Z,22.65
2023-02-24T15:09:15.957Z,27.10
2023-02-24T15:12:18.816Z,23.00
2023-02-24T15:17:58.262Z,19.73
2023-02-24T15:20:44.413Z,22.87
2023-02-24T15:23:36.192Z,23.35
2023-02-24T15:26:27.242Z,26.73
2023-02-24T15:29:15.657Z,23.67
2023-02-24T15:32:04.268Z,23.20
2023-02-24T15:34:50.367Z,23.38
2023-02-24T15:37:42.012Z,25.33
2023-02-24T15:40:29.518Z,34.17
2023-02-24T15:43:35.026Z,27.55
2023-02-24T15:46:24.788Z,24.95
2023-02-24T15:49:11.285Z,18.20
2023-02-24T15:51:59.836Z,26.25
2023-02-24T15:54:45.694Z,28.15
2023-02-24T15:57:32.594Z,20.40
2023-02-24T16:00:21.544Z,30.05
2023-02-24T16:03:07.876Z,20.27
2023-02-24T16:05:53.620Z,20.70
2023-02-24T16:08:44.717Z,30.70
2023-02-24T16:11:32.480Z,23.38
2023-02-24T16:14:18.612Z,30.17
2023-02-24T16:17:08.981Z,27.38
2023-02-24T16:19:56.917Z,23.88
2023-02-24T16:22:42.980Z,27.08
2023-02-24T16:25:30.626Z,24.30
2023-02-24T16:28:18.795Z,22.05
2023-02-24T16:31:05.134Z,27.38
2023-02-24T16:33:55.200Z,28.55
2023-02-24T16:36:43.090Z,27.50
2023-02-24T16:39:29.727Z,23.38
2023-02-24T16:42:17.612Z,33.60
2023-02-24T16:45:03.883Z,33.75
2023-02-24T16:47:56.278Z,29.67
2023-02-24T16:50:43.625Z,32.97
2023-02-24T16:53:29.487Z,21.40
2023-02-24T16:56:15.763Z,16.15
2023-02-24T16:59:01.697Z,23.98
2023-02-24T17:01:48.069Z,26.90
2023-02-24T17:04:33.981Z,24.45
2023-02-24T17:07:21.370Z,20.63
2023-02-24T17:10:07.981Z,22.23
2023-02-24T17:12:54.164Z,26.50
2023-02-24T17:15:40.149Z,20.45
2023-02-24T17:18:27.245Z,24.52
2023-02-24T17:21:15.190Z,30.75
2023-02-24T17:24:01.334Z,34.92
2023-02-24T17:26:47.218Z,31.60
2023-02-24T17:29:33.141Z,25.08
2023-02-24T17:32:19.492Z,30.75
2023-02-24T17:35:06.090Z,25.05
2023-02-24T17:37:52.084Z,39.63
2023-02-24T17:40:38.379Z,34.42
2023-02-24T17:43:24.277Z,48.65
2023-02-24T17:46:10.192Z,37.58
2023-02-24T17:48:56.338Z,31.25
2023-02-24T17:51:42.337Z,35.83
2023-02-24T17:54:28.174Z,36.45
2023-02-24T17:57:14.187Z,44.63
2023-02-24T18:00:00.055Z,46.78
2023-02-24T18:02:46.111Z,46.17
2023-02-24T18:05:32.441Z,41.50
2023-02-24T18:08:18.134Z,45.00
2023-02-24T18:11:05.343Z,31.17
2023-02-24T18:13:52.744Z,39.17
2023-02-24T18:16:39.548Z,39.17
2023-02-24T18:19:25.634Z,43.15
2023-02-24T18:22:11.957Z,26.50
2023-02-24T18:24:59.237Z,37.13
2023-02-24T18:27:45.246Z,29.33
2023-02-24T18:30:31.256Z,27.42
2023-02-24T18:33:17.006Z,23.08
2023-02-24T18:36:02.849Z,42.40
2023-02-24T18:38:48.647Z,29.38
2023-02-24T18:41:34.980Z,38.40
2023-02-24T18:44:21.363Z,45.63
2023-02-24T18:47:09.848Z,35.28
2023-02-24T18:49:55.801Z,37.38
2023-02-24T18:52:42.052Z,34.83
2023-02-24T18:55:28.207Z,28.85
2023-02-24T18:58:14.549Z,37.60
2023-02-24T19:01:01.119Z,26.52
2023-02-24T19:03:47.943Z,33.67
2023-02-24T19:06:35.193Z,28.08
2023-02-24T19:09:21.954Z,30.88
2023-02-24T19:12:08.287Z,34.28
2023-02-24T19:14:54.146Z,47.63
2023-02-24T19:17:40.073Z,43.63
2023-02-24T19:20:25.950Z,38.25
2023-02-24T19:23:11.819Z,39.35
2023-02-24T19:25:57.929Z,43.92
2023-02-24T19:28:44.161Z,33.13
2023-02-24T19:31:32.587Z,43.30
2023-02-24T19:34:18.775Z,43.90
2023-02-24T19:37:04.588Z,30.73
2023-02-24T19:39:51.033Z,38.55
2023-02-24T19:42:37.193Z,45.45
2023-02-24T19:45:23.199Z,37.53
2023-02-24T19:48:10.338Z,41.85
2023-02-24T19:50:56.490Z,38.90
2023-02-24T19:53:42.334Z,42.10
2023-02-24T19:56:30.477Z,37.13
2023-02-24T19:59:17.966Z,42.22
2023-02-24T20:02:04.172Z,43.60
2023-02-24T20:04:50.917Z,43.28
2023-02-24T20:07:37.422Z,41.90
2023-02-24T20:10:23.283Z,50.20
2023-02-24T20:13:09.287Z,38.65
2023-02-24T20:16:10.042Z,37.95
2023-02-24T20:18:56.170Z,36.90
2023-02-24T20:21:42.645Z,51.28
2023-02-24T20:24:28.285Z,53.08
2023-02-24T20:27:14.357Z,43.40
2023-02-24T20:30:00.936Z,31.73
2023-02-24T20:32:46.877Z,45.83
2023-02-24T20:35:32.765Z,38.92
2023-02-24T20:38:18.660Z,51.33
2023-02-24T20:41:05.834Z,41.25
2023-02-24T20:43:52.198Z,46.45
2023-02-24T20:46:38.400Z,46.90
2023-02-24T20:49:24.643Z,42.72
2023-02-24T20:52:10.869Z,43.97
2023-02-24T20:54:56.632Z,31.42
2023-02-24T20:57:42.437Z,32.45
2023-02-24T21:00:28.333Z,42.72
2023-02-24T21:03:14.225Z,35.30
2023-02-24T21:06:09.393Z,50.00
2023-02-24T21:08:57.466Z,37.60
2023-02-24T21:11:43.676Z,46.97
2023-02-24T21:14:29.656Z,54.30
2023-02-24T21:17:15.934Z,43.90
2023-02-24T21:20:02.154Z,49.28
2023-02-24T21:22:48.212Z,40.60
2023-02-24T21:25:34.240Z,38.72
2023-02-24T21:28:23.487Z,38.35
2023-02-24T21:31:11.347Z,41.42
2023-02-24T21:33:57.226Z,51.88
2023-02-24T21:36:43.406Z,40.30
2023-02-24T21:39:29.356Z,33.30
2023-02-24T21:42:15.518Z,33.60
2023-02-24T21:45:02.568Z,33.60
2023-02-24T21:47:48.933Z,36.75
2023-02-24T21:50:35.630Z,35.33
2023-02-24T21:53:23.660Z,39.75
2023-02-24T21:56:16.526Z,40.75
2023-02-24T21:59:04.476Z,39.50
2023-02-24T22:01:50.305Z,36.55
2023-02-24T22:04:36.207Z,33.72
2023-02-24T22:07:22.088Z,41.60
2023-02-24T22:10:08.513Z,38.53
2023-02-24T22:12:56.228Z,37.95
2023-02-24T22:15:42.351Z,40.50
2023-02-24T22:18:29.214Z,37.95
2023-02-24T22:21:19.825Z,34.75
2023-02-24T22:24:06.247Z,33.42
2023-02-24T22:26:52.346Z,37.45
2023-02-24T22:29:38.572Z,34.95
2023-02-24T22:32:24.936Z,42.20
2023-02-24T22:35:10.931Z,38.80
2023-02-24T22:37:56.763Z,46.38
2023-02-24T22:40:43.033Z,39.85
2023-02-24T22:43:29.522Z,38.30
2023-02-24T22:46:22.407Z,36.17
2023-02-24T22:49:08.658Z,31.27
2023-02-24T22:51:54.492Z,34.20
2023-02-24T22:54:40.434Z,33.70
2023-02-24T22:57:27.257Z,39.88
2023-02-24T23:00:20.260Z,29.90
2023-02-24T23:03:06.390Z,35.33
2023-02-24T23:06:03.963Z,33.53
2023-02-24T23:08:50.779Z,30.23
2023-02-24T23:11:41.350Z,29.02
2023-02-24T23:14:27.550Z,30.27
2023-02-24T23:17:13.473Z,29.45
2023-02-24T23:20:02.017Z,38.13
2023-02-24T23:22:53.124Z,32.97
2023-02-24T23:25:39.112Z,31.02
2023-02-24T23:28:26.240Z,35.22
2023-02-24T23:31:18.888Z,36.17
2023-02-24T23:34:07.133Z,33.67
2023-02-24T23:36:53.463Z,30.80
2023-02-24T23:39:39.292Z,33.20
2023-02-24T23:42:25.183Z,29.75
2023-02-24T23:45:11.396Z,26.08
2023-02-24T23:47:57.740Z,28.88
2023-02-24T23:50:43.712Z,32.47
2023-02-24T23:53:30.035Z,36.97
2023-02-24T23:56:22.634Z,25.00
2023-02-24T23:59:09.003Z,34.25
